Time;durP1;ratioP1;P1;durP2;ratioP2;P2;SDS_P1;SDS_P2;PMS_P1;PMS_P2;Temp;Humidity;BMP_temperature;BMP_pressure;BME280_temperature;BME280_humidity;BME280_pressure;Samples;Min_cycle;Max_cycle;Signal;HPM_P1;HPM_P2
2023/03/14 00:01:00;;;;;;;12.13;3.47;;;;;;;9.59;100.00;98633.75;7395003;19;20407;-37
2023/03/14 00:03:32;;;;;;;8.23;2.47;;;;;;;9.55;100.00;98631.13;7393841;19;20439;-37
2023/03/14 00:06:07;;;;;;;5.03;2.07;;;;;;;9.51;100.00;98619.91;7393408;19;20393;-35
2023/03/14 00:08:37;;;;;;;8.00;2.60;;;;;;;9.51;100.00;98619.91;7390693;19;20446;-36
2023/03/14 00:11:08;;;;;;;6.07;2.30;;;;;;;9.43;100.00;98621.53;7392139;19;20438;-37
2023/03/14 00:13:38;;;;;;;8.87;2.57;;;;;;;9.40;100.00;98631.78;7391237;19;20451;-34
2023/03/14 00:16:09;;;;;;;9.43;2.70;;;;;;;9.35;100.00;98634.31;7393680;19;20436;-34
2023/03/14 00:18:39;;;;;;;7.90;4.37;;;;;;;9.32;100.00;98634.25;7391169;19;20435;-35
2023/03/14 00:21:12;;;;;;;8.93;2.57;;;;;;;9.24;100.00;98635.88;7393440;19;20422;-35
2023/03/14 00:23:43;;;;;;;6.87;2.23;;;;;;;9.30;100.00;98639.41;7390528;19;20435;-34
2023/03/14 00:26:14;;;;;;;14.60;2.33;;;;;;;9.28;100.00;98635.94;7396854;19;20414;-35
2023/03/14 00:28:44;;;;;;;7.83;2.30;;;;;;;9.30;100.00;98638.53;7393821;19;20438;-34
2023/03/14 00:31:15;;;;;;;9.83;3.50;;;;;;;9.31;100.00;98635.09;7397553;19;20971;-36
2023/03/14 00:33:46;;;;;;;7.23;2.60;;;;;;;9.35;100.00;98654.03;7394019;19;20431;-34
2023/03/14 00:36:28;;;;;;;9.37;2.40;;;;;;;9.36;100.00;98635.16;7397310;19;20388;-36
2023/03/14 00:38:58;;;;;;;10.23;3.10;;;;;;;9.38;100.00;98612.91;7393471;19;20439;-34
2023/03/14 00:41:30;;;;;;;7.00;2.40;;;;;;;9.38;100.00;98613.75;7396276;19;20461;-36
2023/03/14 00:44:00;;;;;;;8.47;2.77;;;;;;;9.39;100.00;98614.63;7394373;19;20468;-35
2023/03/14 00:46:29;;;;;;;10.23;2.70;;;;;;;9.42;100.00;98600.09;7395629;19;20412;-39
2023/03/14 00:48:59;;;;;;;12.40;3.10;;;;;;;9.42;100.00;98606.94;7393603;19;20510;-35
2023/03/14 00:51:31;;;;;;;8.40;2.50;;;;;;;9.39;100.00;98586.31;7395896;19;20447;-39
2023/03/14 00:54:01;;;;;;;5.57;2.33;;;;;;;9.45;100.00;98568.38;7393891;19;20468;-37
2023/03/14 00:56:31;;;;;;;5.77;1.90;;;;;;;9.43;100.00;98576.06;7395900;19;20415;-36
2023/03/14 00:59:00;;;;;;;12.83;3.20;;;;;;;9.44;100.00;98574.38;7393619;19;20855;-37
2023/03/14 01:01:30;;;;;;;12.87;2.67;;;;;;;9.45;100.00;98576.09;7392590;19;20930;-37
2023/03/14 01:03:59;;;;;;;14.27;2.73;;;;;;;9.50;100.00;98586.44;7393948;19;20435;-37
2023/03/14 01:06:32;;;;;;;12.90;3.20;;;;;;;9.48;100.00;98568.38;7395165;19;20404;-35
2023/03/14 01:09:02;;;;;;;11.90;2.23;;;;;;;9.48;100.00;98570.13;7391819;19;20443;-34
2023/03/14 01:11:33;;;;;;;10.00;2.17;;;;;;;9.51;100.00;98586.47;7393936;19;20404;-39
2023/03/14 01:14:04;;;;;;;6.07;1.83;;;;;;;9.53;100.00;98583.91;7393945;19;20447;-37
2023/03/14 01:16:36;;;;;;;11.20;3.00;;;;;;;9.49;100.00;98577.84;7393381;19;20396;-37
2023/03/14 01:19:06;;;;;;;9.73;2.70;;;;;;;9.53;100.00;98574.47;7392077;19;20451;-35
2023/03/14 01:21:38;;;;;;;8.80;2.20;;;;;;;9.57;100.00;98573.66;7392622;19;20399;-35
2023/03/14 01:24:09;;;;;;;8.50;2.03;;;;;;;9.62;100.00;98583.13;7392951;19;20974;-35
2023/03/14 01:26:38;;;;;;;12.53;2.80;;;;;;;9.64;100.00;98576.28;7395010;19;20424;-36
2023/03/14 01:29:08;;;;;;;9.00;2.33;;;;;;;9.62;100.00;98571.13;7392335;19;20464;-38
2023/03/14 01:31:37;;;;;;;9.93;2.90;;;;;;;9.67;100.00;98568.59;7394034;19;20423;-35
2023/03/14 01:34:07;;;;;;;9.70;2.33;;;;;;;9.65;100.00;98575.44;7392909;19;20511;-36
2023/03/14 01:36:39;;;;;;;15.63;2.90;;;;;;;9.66;100.00;98551.41;7395824;19;20406;-35
2023/03/14 01:39:09;;;;;;;12.23;3.30;;;;;;;9.67;100.00;98538.56;7389120;19;20463;-35
2023/03/14 01:41:39;;;;;;;5.30;1.50;;;;;;;9.64;100.00;98533.38;7392677;19;20414;-36
2023/03/14 01:44:11;;;;;;;11.97;2.63;;;;;;;9.67;100.00;98522.25;7392097;19;20439;-36
2023/03/14 01:46:42;;;;;;;6.93;2.20;;;;;;;9.71;100.00;98500.84;7392986;19;20413;-36
2023/03/14 01:49:21;;;;;;;9.43;2.50;;;;;;;9.70;100.00;98483.66;7391079;19;20442;-38
2023/03/14 01:51:58;;;;;;;7.00;2.30;;;;;;;9.68;100.00;98475.03;7388840;19;20470;-36
2023/03/14 01:54:31;;;;;;;5.00;1.70;;;;;;;9.63;100.00;98475.00;7393432;19;20413;-35
2023/03/14 01:57:04;;;;;;;10.47;2.53;;;;;;;9.54;100.00;98469.78;7391393;19;20426;-35
2023/03/14 01:59:34;;;;;;;16.80;3.17;;;;;;;9.55;100.00;98474.94;7388779;19;20396;-36
2023/03/14 02:02:05;;;;;;;12.87;2.50;;;;;;;9.53;100.00;98484.34;7384928;19;20858;-35
2023/03/14 02:04:36;;;;;;;9.43;2.20;;;;;;;9.56;100.00;98484.41;7389418;19;20512;-35
2023/03/14 02:07:13;;;;;;;11.03;2.77;;;;;;;9.56;100.00;98491.25;7386474;19;20433;-36
2023/03/14 02:09:43;;;;;;;11.67;2.80;;;;;;;9.53;100.00;98492.09;7388506;19;20403;-35
2023/03/14 02:12:12;;;;;;;11.87;2.80;;;;;;;9.54;100.00;98485.22;7386904;19;20769;-35
2023/03/14 02:14:47;;;;;;;6.80;2.50;;;;;;;9.54;100.00;98470.63;7392137;19;20407;-36
2023/03/14 02:17:19;;;;;;;4.63;2.13;;;;;;;9.52;100.00;98443.16;7387092;19;21087;-38
2023/03/14 02:20:01;;;;;;;9.13;3.00;;;;;;;9.53;100.00;98438.03;7387195;19;20929;-41
2023/03/14 02:22:33;;;;;;;4.70;2.10;;;;;;;9.53;100.00;98427.72;7386359;19;20419;-37
2023/03/14 02:25:08;;;;;;;11.80;3.10;;;;;;;9.52;100.00;98409.69;7389010;19;20396;-39
2023/03/14 02:27:41;;;;;;;10.43;3.37;;;;;;;9.50;100.00;98414.84;7387172;19;20414;-36
2023/03/14 02:30:13;;;;;;;8.73;3.00;;;;;;;9.50;100.00;98416.53;7388669;19;20399;-36
2023/03/14 02:32:45;;;;;;;7.40;2.40;;;;;;;9.42;100.00;98426.75;7386411;19;20929;-36
2023/03/14 02:35:19;;;;;;;9.07;3.30;;;;;;;9.40;100.00;98424.19;7388575;19;20392;-37
2023/03/14 02:37:54;;;;;;;10.50;3.30;;;;;;;9.39;100.00;98426.75;7385534;19;20497;-37
2023/03/14 02:40:24;;;;;;;10.70;3.60;;;;;;;9.40;100.00;98425.91;7388741;19;20384;-37
2023/03/14 02:42:56;;;;;;;11.27;3.00;;;;;;;9.39;100.00;98430.16;7387638;19;20411;-35
2023/03/14 02:45:38;;;;;;;7.67;3.30;;;;;;;9.40;100.00;98431.91;7388610;19;20403;-36
2023/03/14 02:48:11;;;;;;;9.77;3.43;;;;;;;9.42;100.00;98427.63;7382335;19;20759;-36
2023/03/14 02:50:41;;;;;;;11.03;3.90;;;;;;;9.43;100.00;98436.19;7389597;19;20756;-38
2023/03/14 02:53:10;;;;;;;9.00;3.70;;;;;;;9.39;100.00;98435.31;7385167;19;20445;-44
2023/03/14 02:55:40;;;;;;;12.17;3.90;;;;;;;9.41;100.00;98436.22;7390085;19;20403;-36
2023/03/14 02:58:12;;;;;;;9.33;3.10;;;;;;;9.41;100.00;98437.91;7387331;19;20780;-38
2023/03/14 03:00:41;;;;;;;9.83;3.60;;;;;;;9.41;100.00;98443.06;7387981;19;20392;-37
2023/03/14 03:03:12;;;;;;;7.73;2.67;;;;;;;9.43;100.00;98425.91;7387398;19;20426;-37
2023/03/14 03:05:44;;;;;;;12.13;4.20;;;;;;;9.43;100.00;98425.91;7389634;19;20770;-36
2023/03/14 03:08:14;;;;;;;9.43;3.13;;;;;;;9.45;100.00;98430.22;7387492;19;20415;-39
2023/03/14 03:10:43;;;;;;;7.37;3.40;;;;;;;9.42;100.00;98419.91;7389141;19;20932;-36
2023/03/14 03:13:16;;;;;;;6.87;3.20;;;;;;;9.42;100.00;98429.34;7387791;19;20927;-36
2023/03/14 03:15:45;;;;;;;7.17;3.60;;;;;;;9.45;100.00;98419.09;7389521;19;20409;-35
2023/03/14 03:18:15;;;;;;;7.37;3.50;;;;;;;9.49;100.00;98423.38;7386169;19;20414;-36
2023/03/14 03:20:45;;;;;;;7.90;3.30;;;;;;;9.54;100.00;98419.16;7388617;19;20967;-36
2023/03/14 03:23:15;;;;;;;12.83;4.10;;;;;;;9.57;100.00;98408.03;7385794;19;20403;-38
2023/03/14 03:25:44;;;;;;;25.63;9.30;;;;;;;9.63;100.00;98400.34;7389423;19;20376;-36
2023/03/14 03:28:16;;;;;;;7.20;3.70;;;;;;;9.64;100.00;98403.78;7386769;19;21074;-36
2023/03/14 03:30:46;;;;;;;13.50;3.50;;;;;;;9.67;100.00;98396.06;7389506;19;20399;-38
2023/03/14 03:33:16;;;;;;;4.27;1.67;;;;;;;9.73;100.00;98393.53;7390643;19;20423;-38
2023/03/14 03:35:47;;;;;;;6.27;1.70;;;;;;;9.75;100.00;98391.88;7398444;19;20392;-36
2023/03/14 03:38:17;;;;;;;9.03;2.60;;;;;;;9.75;100.00;98372.97;7393362;19;20435;-37
2023/03/14 03:40:47;;;;;;;9.47;3.50;;;;;;;9.78;100.00;98370.41;7395918;19;20400;-36
2023/03/14 03:43:19;;;;;;;5.20;3.20;;;;;;;9.81;100.00;98365.28;7392869;19;20403;-39
2023/03/14 03:45:48;;;;;;;5.43;2.30;;;;;;;9.78;100.00;98368.69;7396125;19;21207;-36
2023/03/14 03:48:18;;;;;;;9.40;3.83;;;;;;;9.75;100.00;98360.97;7393580;19;20487;-37
2023/03/14 03:50:48;;;;;;;11.70;3.13;;;;;;;9.74;100.00;98369.50;7395811;19;20387;-36
2023/03/14 03:53:17;;;;;;;13.00;2.90;;;;;;;9.75;100.00;98360.97;7393258;19;20434;-36
2023/03/14 03:56:01;;;;;;;4.30;1.70;;;;;;;9.70;100.00;98353.19;7395573;19;20415;-36
2023/03/14 03:58:34;;;;;;;4.37;2.67;;;;;;;9.68;100.00;98344.59;7392528;19;20403;-36
2023/03/14 04:01:03;;;;;;;8.27;3.17;;;;;;;9.69;100.00;98348.06;7395062;19;20403;-39
2023/03/14 04:03:33;;;;;;;6.80;2.27;;;;;;;9.64;100.00;98348.00;7392420;19;20829;-38
2023/03/14 04:06:03;;;;;;;3.87;1.93;;;;;;;9.63;100.00;98345.44;7395057;19;20392;-36
2023/03/14 04:08:33;;;;;;;10.00;2.37;;;;;;;9.62;100.00;98349.72;7395445;19;20476;-35
2023/03/14 04:11:03;;;;;;;11.30;2.37;;;;;;;9.64;100.00;98339.44;7395729;19;20399;-38
2023/03/14 04:13:35;;;;;;;6.83;2.57;;;;;;;9.61;100.00;98336.81;7391921;19;20955;-36
2023/03/14 04:16:05;;;;;;;8.50;3.07;;;;;;;9.57;100.00;98336.81;7395423;19;20398;-35
2023/03/14 04:18:35;;;;;;;4.13;1.73;;;;;;;9.54;100.00;98335.94;7391739;19;20947;-35
2023/03/14 04:21:05;;;;;;;5.73;2.63;;;;;;;9.52;100.00;98333.34;7394266;19;20409;-35
2023/03/14 04:23:35;;;;;;;9.13;2.43;;;;;;;9.52;100.00;98333.34;7392691;19;20517;-35
2023/03/14 04:26:04;;;;;;;3.00;1.67;;;;;;;9.51;100.00;98326.47;7395235;19;20399;-37
2023/03/14 04:28:38;;;;;;;4.63;1.90;;;;;;;9.50;100.00;98329.03;7391288;19;20403;-37
2023/03/14 04:31:12;;;;;;;5.87;2.53;;;;;;;9.54;100.00;98316.19;7394409;19;20391;-35
2023/03/14 04:33:41;;;;;;;14.70;3.33;;;;;;;9.51;100.00;98311.03;7391351;19;20407;-42
2023/03/14 04:36:14;;;;;;;6.83;1.93;;;;;;;9.52;100.00;98315.31;7394823;19;20391;-36
2023/03/14 04:38:43;;;;;;;6.00;2.60;;;;;;;9.51;100.00;98305.88;7390510;19;20446;-36
2023/03/14 04:41:13;;;;;;;11.87;3.40;;;;;;;9.55;100.00;98302.44;7393964;19;20398;-36
2023/03/14 04:43:45;;;;;;;11.83;3.87;;;;;;;9.53;100.00;98314.47;7388653;19;20415;-37
2023/03/14 04:46:14;;;;;;;6.03;1.87;;;;;;;9.52;100.00;98324.75;7395092;19;20427;-36
2023/03/14 04:48:44;;;;;;;7.97;3.03;;;;;;;9.46;100.00;98348.72;7389930;19;20424;-38
2023/03/14 04:51:14;;;;;;;5.43;1.30;;;;;;;8.87;100.00;98335.38;7394023;19;20419;-36
2023/03/14 04:53:43;;;;;;;1.80;0.80;;;;;;;8.59;100.00;98353.06;7390217;19;20431;-36
2023/03/14 04:56:13;;;;;;;2.20;0.63;;;;;;;8.49;100.00;98329.81;7393425;19;20392;-36
2023/03/14 04:58:45;;;;;;;5.00;1.23;;;;;;;8.41;100.00;98323.69;7389901;19;20452;-38
2023/03/14 05:01:14;;;;;;;2.53;0.67;;;;;;;8.33;100.00;98325.31;7393297;19;20417;-35
2023/03/14 05:03:44;;;;;;;2.93;0.90;;;;;;;8.23;100.00;98322.66;7390481;19;20410;-37
2023/03/14 05:06:13;;;;;;;1.50;0.43;;;;;;;8.07;100.00;98324.16;7393504;19;20432;-37
2023/03/14 05:08:43;;;;;;;2.10;0.67;;;;;;;7.95;100.00;98324.84;7390740;19;20407;-38
2023/03/14 05:11:12;;;;;;;2.60;1.00;;;;;;;7.91;100.00;98323.09;7393499;19;20404;-38
2023/03/14 05:13:44;;;;;;;3.00;1.30;;;;;;;7.89;100.00;98329.06;7390610;19;20435;-35
2023/03/14 05:16:14;;;;;;;2.60;0.90;;;;;;;7.85;100.00;98343.56;7393072;19;20396;-41
2023/03/14 05:18:43;;;;;;;1.70;0.57;;;;;;;7.67;100.00;98345.00;7393326;19;20439;-35
2023/03/14 05:21:13;;;;;;;1.60;0.53;;;;;;;7.43;100.00;98348.91;7392776;19;20416;-35
2023/03/14 05:23:43;;;;;;;3.83;0.97;;;;;;;7.34;100.00;98356.44;7390309;19;20414;-36
2023/03/14 05:26:12;;;;;;;2.93;1.00;;;;;;;7.29;100.00;98363.22;7393403;19;20383;-39
2023/03/14 05:28:44;;;;;;;2.33;1.23;;;;;;;7.16;100.00;98336.50;7386619;19;20955;-40
2023/03/14 05:31:14;;;;;;;4.30;1.20;;;;;;;7.10;100.00;98279.97;7392066;19;20421;-38
2023/03/14 05:33:43;;;;;;;2.40;1.13;;;;;;;7.09;100.00;98243.25;7390318;19;20447;-39
2023/03/14 05:36:13;;;;;;;6.83;1.57;;;;;;;7.10;100.00;98244.09;7392547;19;20920;-36
2023/03/14 05:38:42;;;;;;;7.80;2.17;;;;;;;7.08;100.00;98228.66;7388712;19;20431;-37
2023/03/14 05:41:12;;;;;;;4.50;1.73;;;;;;;7.11;100.00;98200.53;7392519;19;20743;-37
2023/03/14 05:43:41;;;;;;;7.57;2.10;;;;;;;7.12;100.00;98174.03;7384911;19;20963;-40
2023/03/14 05:46:13;;;;;;;7.23;2.33;;;;;;;7.14;100.00;98141.56;7392270;19;20416;-36
2023/03/14 05:48:43;;;;;;;5.33;2.13;;;;;;;7.11;100.00;98123.59;7388159;19;21009;-35
2023/03/14 05:51:12;;;;;;;5.00;2.20;;;;;;;7.12;100.00;98107.38;7392034;19;21121;-35
2023/03/14 05:53:42;;;;;;;5.23;2.90;;;;;;;7.14;100.00;98097.97;7388699;19;20781;-38
2023/03/14 05:56:11;;;;;;;6.40;3.47;;;;;;;7.18;100.00;98072.41;7392085;19;20394;-36
2023/03/14 05:58:41;;;;;;;6.87;3.40;;;;;;;7.18;100.00;98062.97;7388946;19;20419;-36
2023/03/14 06:01:10;;;;;;;10.10;2.87;;;;;;;7.22;100.00;98057.06;7391264;19;20395;-36
2023/03/14 06:03:42;;;;;;;10.70;3.57;;;;;;;7.27;100.00;98051.97;7387756;19;20439;-36
2023/03/14 06:06:12;;;;;;;9.47;4.10;;;;;;;7.29;100.00;98034.91;7391991;19;20404;-36
2023/03/14 06:08:41;;;;;;;8.90;5.13;;;;;;;7.32;100.00;98034.94;7388103;19;20411;-36
2023/03/14 06:11:10;;;;;;;7.50;4.00;;;;;;;7.36;100.00;98041.84;7390914;19;20432;-36
2023/03/14 06:13:40;;;;;;;12.47;5.30;;;;;;;7.42;100.00;98033.34;7388305;19;20435;-36
2023/03/14 06:16:10;;;;;;;8.63;5.10;;;;;;;7.41;100.00;98040.19;7390913;19;20425;-36
2023/03/14 06:18:43;;;;;;;10.20;4.80;;;;;;;7.44;100.00;98044.50;7388094;19;20447;-36
2023/03/14 06:21:12;;;;;;;13.10;5.00;;;;;;;7.49;100.00;98040.25;7390810;19;20930;-36
2023/03/14 06:23:41;;;;;;;17.63;5.57;;;;;;;7.50;100.00;98049.69;7388747;19;20430;-35
2023/03/14 06:26:11;;;;;;;12.03;5.53;;;;;;;7.57;100.00;98045.47;7391389;19;20394;-39
2023/03/14 06:28:41;;;;;;;14.53;4.77;;;;;;;7.61;100.00;98048.91;7387091;19;20427;-37
2023/03/14 06:31:11;;;;;;;15.67;6.87;;;;;;;7.59;100.00;98054.03;7390581;19;20390;-38
2023/03/14 06:33:43;;;;;;;10.63;4.73;;;;;;;7.52;100.00;98072.78;7386614;19;20406;-36
2023/03/14 06:36:13;;;;;;;11.03;6.30;;;;;;;7.51;100.00;98073.63;7391249;19;20387;-37
2023/03/14 06:38:42;;;;;;;8.70;4.70;;;;;;;7.54;100.00;98068.53;7389490;19;20440;-37
2023/03/14 06:41:12;;;;;;;13.33;6.73;;;;;;;7.55;100.00;98077.97;7390153;19;20388;-37
2023/03/14 06:43:41;;;;;;;11.13;4.97;;;;;;;7.56;100.00;98087.38;7385844;19;20450;-39
2023/03/14 06:46:11;;;;;;;11.57;6.00;;;;;;;7.62;100.00;98082.31;7391166;19;20396;-38
2023/03/14 06:48:43;;;;;;;20.30;6.77;;;;;;;7.61;100.00;98078.03;7386026;19;20433;-37
2023/03/14 06:51:12;;;;;;;10.87;5.37;;;;;;;7.62;100.00;98082.31;7390402;19;20395;-38
2023/03/14 06:53:42;;;;;;;12.60;6.10;;;;;;;7.61;100.00;98078.03;7386971;19;20422;-40
2023/03/14 06:56:11;;;;;;;7.33;3.13;;;;;;;7.66;100.00;98080.63;7389990;19;20388;-36
2023/03/14 06:58:41;;;;;;;12.80;5.93;;;;;;;7.69;100.00;98094.34;7386772;19;20407;-38
2023/03/14 07:01:21;;;;;;;11.43;5.20;;;;;;;7.72;100.00;98095.22;7389799;19;20399;-36
2023/03/14 07:03:53;;;;;;;15.13;4.17;;;;;;;7.74;100.00;98107.22;7386503;19;20790;-36
2023/03/14 07:06:23;;;;;;;9.40;4.43;;;;;;;7.82;100.00;98109.88;7390698;19;20387;-37
2023/03/14 07:08:52;;;;;;;14.80;7.07;;;;;;;7.82;100.00;98117.59;7394469;19;20420;-36
2023/03/14 07:11:22;;;;;;;5.60;2.80;;;;;;;7.83;100.00;98125.31;7399596;19;20439;-36
2023/03/14 07:13:51;;;;;;;10.40;3.40;;;;;;;7.87;100.00;98138.16;7393206;19;20530;-38
2023/03/14 07:16:21;;;;;;;7.40;3.60;;;;;;;7.90;100.00;98144.19;7397204;19;20392;-35
2023/03/14 07:18:53;;;;;;;7.13;3.20;;;;;;;7.91;100.00;98153.66;7390673;19;20411;-36
2023/03/14 07:21:24;;;;;;;5.80;2.97;;;;;;;7.92;100.00;98175.91;7396627;19;20410;-38
2023/03/14 07:23:54;;;;;;;5.80;2.50;;;;;;;7.92;100.00;98186.19;7392309;19;20422;-37
2023/03/14 07:26:23;;;;;;;15.80;4.50;;;;;;;7.95;100.00;98196.47;7395833;19;20778;-37
2023/03/14 07:28:52;;;;;;;7.13;2.97;;;;;;;8.01;100.00;98215.34;7393345;19;20429;-36
2023/03/14 07:31:22;;;;;;;7.40;3.53;;;;;;;8.04;100.00;98236.78;7395514;19;20490;-35
2023/03/14 07:33:54;;;;;;;11.27;2.03;;;;;;;8.08;100.00;98256.53;7392384;19;21330;-36
2023/03/14 07:36:23;;;;;;;5.53;2.53;;;;;;;8.10;100.00;98269.38;7398732;19;20403;-36
2023/03/14 07:38:53;;;;;;;4.53;2.17;;;;;;;8.12;100.00;98272.84;7392994;19;20977;-37
2023/03/14 07:41:23;;;;;;;7.83;2.07;;;;;;;8.13;100.00;98287.41;7395830;19;20463;-36
2023/03/14 07:43:55;;;;;;;9.83;2.20;;;;;;;8.13;100.00;98302.81;7392092;19;20423;-36
2023/03/14 07:46:24;;;;;;;4.07;1.73;;;;;;;8.06;100.00;98295.88;7396230;19;20415;-36
2023/03/14 07:48:57;;;;;;;4.40;1.77;;;;;;;8.01;100.00;98307.81;7391276;19;20412;-36
2023/03/14 07:51:26;;;;;;;5.07;1.50;;;;;;;8.00;100.00;98300.94;7396260;19;20379;-36
2023/03/14 07:53:55;;;;;;;7.07;1.97;;;;;;;8.00;100.00;98311.22;7393550;19;20439;-36
2023/03/14 07:56:25;;;;;;;3.93;2.00;;;;;;;8.00;100.00;98321.50;7395763;19;20477;-38
2023/03/14 07:58:55;;;;;;;5.10;2.50;;;;;;;7.99;100.00;98320.63;7392197;19;20450;-36
2023/03/14 08:01:24;;;;;;;10.80;2.40;;;;;;;7.97;100.00;98312.91;7399614;19;20432;-36
2023/03/14 08:03:53;;;;;;;7.20;3.83;;;;;;;7.99;100.00;98314.63;7390267;19;20475;-36
2023/03/14 08:06:26;;;;;;;8.63;3.47;;;;;;;7.95;100.00;98309.44;7395408;19;20408;-37
2023/03/14 08:08:55;;;;;;;3.07;1.70;;;;;;;7.95;100.00;98314.59;7390091;19;20424;-36
2023/03/14 08:11:24;;;;;;;6.77;2.50;;;;;;;8.02;100.00;98302.69;7394719;19;20387;-36
2023/03/14 08:13:54;;;;;;;11.57;2.73;;;;;;;8.05;100.00;98307.84;7391617;19;20783;-36
2023/03/14 08:16:24;;;;;;;14.57;5.50;;;;;;;8.07;100.00;98305.31;7395346;19;20396;-35
2023/03/14 08:18:53;;;;;;;11.23;2.63;;;;;;;8.15;100.00;98292.56;7390038;19;20976;-36
2023/03/14 08:21:25;;;;;;;8.20;2.40;;;;;;;8.14;100.00;98294.28;7394406;19;20953;-38
2023/03/14 08:23:55;;;;;;;4.07;1.43;;;;;;;8.16;100.00;98297.72;7392174;19;20458;-36
2023/03/14 08:26:24;;;;;;;5.67;2.23;;;;;;;8.19;100.00;98292.63;7393942;19;20767;-36
2023/03/14 08:28:54;;;;;;;4.90;1.60;;;;;;;8.20;100.00;98293.50;7389011;19;20427;-38
2023/03/14 08:31:24;;;;;;;8.77;1.80;;;;;;;8.23;100.00;98296.97;7394233;19;20412;-38
2023/03/14 08:33:54;;;;;;;3.70;1.27;;;;;;;8.28;100.00;98301.28;7391190;19;20419;-35
2023/03/14 08:36:26;;;;;;;3.93;1.83;;;;;;;8.29;100.00;98300.41;7395191;19;20392;-38
2023/03/14 08:38:56;;;;;;;4.63;1.93;;;;;;;8.33;100.00;98300.50;7391128;19;20959;-36
2023/03/14 08:41:26;;;;;;;15.83;7.70;;;;;;;8.41;100.00;98302.28;7392655;19;20411;-35
2023/03/14 08:43:55;;;;;;;6.20;1.97;;;;;;;8.40;100.00;98300.56;7392960;19;20963;-36
2023/03/14 08:46:25;;;;;;;11.90;1.80;;;;;;;8.37;100.00;98306.53;7397864;19;20395;-36
2023/03/14 08:48:54;;;;;;;3.43;1.40;;;;;;;8.32;100.00;98308.19;7393841;19;20445;-36
2023/03/14 08:51:26;;;;;;;4.20;1.60;;;;;;;8.30;100.00;98309.88;7397828;19;20426;-38
2023/03/14 08:53:56;;;;;;;4.97;1.83;;;;;;;8.20;100.00;98312.31;7394274;19;20462;-36
2023/03/14 08:56:25;;;;;;;8.97;1.60;;;;;;;8.14;100.00;98299.41;7398284;19;20788;-36
2023/03/14 08:58:55;;;;;;;7.97;2.03;;;;;;;8.09;100.00;98283.94;7393256;19;20443;-38
2023/03/14 09:01:26;;;;;;;3.70;1.77;;;;;;;8.04;100.00;98269.31;7397685;19;20415;-36
2023/03/14 09:03:55;;;;;;;6.03;2.20;;;;;;;8.03;100.00;98265.03;7370903;19;20439;-36
2023/03/14 09:06:27;;;;;;;4.37;1.80;;;;;;;8.02;100.00;98258.16;7397187;19;20399;-36
2023/03/14 09:08:57;;;;;;;3.73;2.30;;;;;;;8.05;100.00;98253.09;7393507;19;20436;-36
2023/03/14 09:11:26;;;;;;;8.13;2.90;;;;;;;8.08;100.00;98240.25;7397608;19;20411;-37
2023/03/14 09:13:56;;;;;;;16.50;3.73;;;;;;;8.15;100.00;98224.06;7394382;19;20431;-36
2023/03/14 09:16:26;;;;;;;9.17;3.33;;;;;;;8.19;100.00;98207.84;7396476;19;20424;-35
2023/03/14 09:18:59;;;;;;;3.70;2.30;;;;;;;8.18;100.00;98211.28;7393840;19;20427;-35
2023/03/14 09:21:31;;;;;;;8.23;2.87;;;;;;;8.23;100.00;98207.06;7394931;19;20414;-40
2023/03/14 09:24:00;;;;;;;12.63;2.73;;;;;;;8.20;100.00;98191.59;7391162;19;21093;-37
2023/03/14 09:26:30;;;;;;;10.53;2.67;;;;;;;8.13;100.00;98192.38;7393048;19;20463;-36
2023/03/14 09:28:59;;;;;;;7.47;3.27;;;;;;;8.15;100.00;98192.41;7391302;19;20431;-37
2023/03/14 09:31:29;;;;;;;10.83;2.87;;;;;;;8.10;100.00;98189.75;7394171;19;20392;-36
2023/03/14 09:33:59;;;;;;;38.63;15.70;;;;;;;8.10;100.00;98174.34;7393292;19;20447;-36
2023/03/14 09:36:32;;;;;;;16.03;6.90;;;;;;;8.06;100.00;98158.06;7394679;19;20758;-42
2023/03/14 09:39:01;;;;;;;23.30;8.53;;;;;;;7.99;100.00;98163.13;7393466;19;20677;-36
2023/03/14 09:41:34;;;;;;;12.50;5.20;;;;;;;8.00;100.00;98146.88;7394939;19;20416;-37
2023/03/14 09:44:07;;;;;;;12.55;4.25;;;;;;;7.93;100.00;98141.69;7392858;19;20439;-37
2023/03/14 09:46:38;;;;;;;13.17;4.73;;;;;;;7.91;100.00;98158.78;7393197;19;20448;-38
2023/03/14 09:49:13;;;;;;;12.50;5.60;;;;;;;7.73;100.00;98184.25;7387261;19;20920;-37
2023/03/14 09:51:47;;;;;;;6.33;2.10;;;;;;;6.91;100.00;98192.53;7394173;19;20407;-37
2023/03/14 09:54:31;;;;;;;26.80;11.50;;;;;;;6.73;100.00;98198.22;7394183;19;20867;-37
2023/03/14 09:57:01;;;;;;;9.70;2.53;;;;;;;6.41;100.00;98203.69;7392796;19;20418;-38
2023/03/14 09:59:31;;;;;;;6.47;2.37;;;;;;;6.29;100.00;98199.19;7393250;19;20424;-37
2023/03/14 10:02:03;;;;;;;4.40;1.67;;;;;;;6.21;100.00;98214.44;7392594;19;20971;-38
2023/03/14 10:04:33;;;;;;;8.87;3.63;;;;;;;6.14;100.00;98222.81;7394050;19;20785;-36
2023/03/14 10:07:05;;;;;;;8.20;2.50;;;;;;;5.99;100.00;98251.53;7389497;19;20400;-40
2023/03/14 10:09:37;;;;;;;5.97;2.57;;;;;;;5.79;100.00;98273.28;7393294;19;20440;-36
2023/03/14 10:12:09;;;;;;;8.33;2.67;;;;;;;5.05;100.00;98302.28;7392545;19;20432;-37
2023/03/14 10:14:40;;;;;;;2.40;0.80;;;;;;;4.72;100.00;98324.50;7394088;19;20408;-37
2023/03/14 10:17:12;;;;;;;9.00;2.30;;;;;;;4.53;100.00;98339.31;7392417;19;20399;-38
2023/03/14 10:19:53;;;;;;;7.63;2.60;;;;;;;4.51;100.00;98345.22;7394086;19;21007;-36
2023/03/14 10:22:26;;;;;;;5.37;1.70;;;;;;;4.43;100.00;98358.66;7392027;19;20414;-36
2023/03/14 10:24:59;;;;;;;16.40;4.23;;;;;;;4.42;100.00;98364.53;7393842;19;20408;-36
2023/03/14 10:27:32;;;;;;;2.70;0.80;;;;;;;4.22;100.00;98383.53;7392941;19;20466;-37
2023/03/14 10:30:03;;;;;;;8.03;2.77;;;;;;;3.99;100.00;98386.28;7393817;19;20407;-37
2023/03/14 10:32:36;;;;;;;12.87;3.00;;;;;;;3.85;100.00;98404.56;7390567;19;20443;-36
2023/03/14 10:35:09;;;;;;;6.60;2.00;;;;;;;3.68;100.00;98418.50;7394242;19;20436;-38
2023/03/14 10:37:51;;;;;;;5.50;1.83;;;;;;;3.56;100.00;98424.94;7390126;19;20434;-36
2023/03/14 10:40:21;;;;;;;5.43;1.23;;;;;;;3.27;100.00;98455.41;7394206;19;20492;-36
2023/03/14 10:42:51;;;;;;;2.20;0.70;;;;;;;3.03;100.00;98474.13;7396274;19;20439;-38
2023/03/14 10:45:39;;;;;;;5.53;2.13;;;;;;;2.94;100.00;98479.78;7401351;19;20399;-36
2023/03/14 10:48:21;;;;;;;2.67;1.00;;;;;;;2.88;100.00;98511.81;7397619;19;20438;-36
2023/03/14 10:50:52;;;;;;;4.73;1.60;;;;;;;2.79;100.00;98517.44;7401069;19;20459;-36
2023/03/14 10:53:25;;;;;;;3.10;0.80;;;;;;;2.59;100.00;98520.09;7397977;19;21043;-36
2023/03/14 10:55:58;;;;;;;3.03;1.13;;;;;;;2.68;100.00;98547.59;7401258;19;20391;-37
2023/03/14 10:58:29;;;;;;;2.60;0.60;;;;;;;2.63;100.00;98566.91;7396420;19;20438;-35
2023/03/14 11:01:07;;;;;;;4.10;0.67;;;;;;;2.60;100.00;98590.59;7400633;19;20429;-37
2023/03/14 11:03:38;;;;;;;5.93;1.23;;;;;;;2.59;100.00;98604.13;7395882;19;20438;-36
2023/03/14 11:06:12;;;;;;;1.70;0.60;;;;;;;2.83;100.00;98621.19;7398300;19;20415;-36
2023/03/14 11:08:50;;;;;;;3.27;1.20;;;;;;;2.76;100.00;98601.38;7398296;19;20438;-36
2023/03/14 11:11:23;;;;;;;3.10;0.87;;;;;;;2.61;100.00;98639.84;7401548;19;20409;-36
2023/03/14 11:14:01;;;;;;;1.97;0.60;;;;;;;2.73;100.00;98654.72;7396241;19;20427;-38
2023/03/14 11:16:37;;;;;;;4.07;0.97;;;;;;;2.45;100.00;98644.31;7399608;19;20435;-36
2023/03/14 11:19:19;;;;;;;3.60;0.80;;;;;;;2.44;100.00;98675.66;7397163;19;21005;-35
2023/03/14 11:21:54;;;;;;;11.57;2.17;;;;;;;2.31;100.00;98684.50;7396703;19;20432;-35
2023/03/14 11:24:44;;;;;;;4.80;0.80;;;;;;;2.41;100.00;98703.56;7399629;19;20394;-36
2023/03/14 11:27:20;;;;;;;4.23;1.10;;;;;;;2.46;100.00;98716.47;7395234;19;20411;-36
2023/03/14 11:29:57;;;;;;;8.07;1.90;;;;;;;2.40;100.00;98737.41;7398703;19;20411;-35
2023/03/14 11:32:37;;;;;;;2.83;0.90;;;;;;;2.50;100.00;98764.13;7396199;19;20426;-37
2023/03/14 11:35:15;;;;;;;3.07;1.10;;;;;;;2.66;100.00;98781.81;7400226;19;20404;-36
2023/03/14 11:37:49;;;;;;;12.37;3.80;;;;;;;2.82;100.00;98788.41;7396000;19;20435;-36
2023/03/14 11:40:24;;;;;;;5.33;1.40;;;;;;;2.76;100.00;98802.59;7398804;19;20380;-36
2023/03/14 11:43:02;;;;;;;7.27;1.73;;;;;;;2.67;100.00;98833.63;7392759;19;20451;-38
2023/03/14 11:45:36;;;;;;;3.00;0.90;;;;;;;2.71;100.00;98855.84;7397112;19;20944;-36
2023/03/14 11:48:16;;;;;;;9.97;2.90;;;;;;;3.33;100.00;98852.47;7396330;19;20443;-37
2023/03/14 11:50:47;;;;;;;4.80;1.17;;;;;;;3.16;100.00;98874.69;7397832;19;20735;-38